Time;durP1;ratioP1;P1;durP2;ratioP2;P2;SDS_P1;SDS_P2;PMS_P1;PMS_P2;Temp;Humidity;BMP_temperature;BMP_pressure;BME280_temperature;BME280_humidity;BME280_pressure;Samples;Min_cycle;Max_cycle;Signal;HPM_P1;HPM_P2
2023/07/29 00:00:48;;;;;;;7.88;7.22;;;;;;;;;;5021537;28;20242;-78
2023/07/29 00:03:14;;;;;;;8.30;7.50;;;;;;;;;;5027897;28;20236;-78
2023/07/29 00:05:42;;;;;;;8.55;7.03;;;;;;;;;;5049500;28;20223;-78
2023/07/29 00:08:08;;;;;;;7.53;6.82;;;;;;;;;;5013805;28;20260;-78
2023/07/29 00:10:36;;;;;;;8.20;7.60;;;;;;;;;;5020791;28;20223;-79
2023/07/29 00:13:04;;;;;;;8.15;7.45;;;;;;;;;;5050793;28;20215;-79
2023/07/29 00:15:30;;;;;;;8.43;7.63;;;;;;;;;;5040721;28;20287;-79
2023/07/29 00:17:59;;;;;;;8.18;7.38;;;;;;;;;;5017707;28;20228;-78
2023/07/29 00:20:25;;;;;;;7.35;6.72;;;;;;;;;;5007931;28;20232;-79
2023/07/29 00:22:54;;;;;;;5.97;5.47;;;;;;;;;;5037172;28;20216;-79
2023/07/29 00:25:20;;;;;;;5.97;5.57;;;;;;;;;;5047449;28;20250;-79
2023/07/29 00:27:50;;;;;;;6.18;5.75;;;;;;;;;;5028701;28;20215;-79
2023/07/29 00:30:16;;;;;;;8.20;7.45;;;;;;;;;;5035522;28;20308;-78
2023/07/29 00:32:41;;;;;;;8.43;7.72;;;;;;;;;;5031396;28;20220;-78
2023/07/29 00:35:08;;;;;;;9.73;8.10;;;;;;;;;;5042476;28;20236;-79
2023/07/29 00:37:37;;;;;;;8.98;8.27;;;;;;;;;;5032004;28;20288;-79
2023/07/29 00:40:07;;;;;;;8.93;8.32;;;;;;;;;;5058476;28;20223;-79
2023/07/29 00:42:33;;;;;;;8.70;7.80;;;;;;;;;;5039415;28;20322;-79
2023/07/29 00:44:58;;;;;;;13.13;8.02;;;;;;;;;;5028880;28;20246;-79
2023/07/29 00:47:27;;;;;;;11.20;10.02;;;;;;;;;;5057432;28;20215;-79
2023/07/29 00:49:57;;;;;;;12.07;11.02;;;;;;;;;;5030337;28;20231;-79
2023/07/29 00:52:23;;;;;;;10.13;9.13;;;;;;;;;;5026928;28;20290;-78
2023/07/29 00:54:53;;;;;;;11.32;9.85;;;;;;;;;;5025560;28;20228;-79
2023/07/29 00:57:19;;;;;;;10.38;9.57;;;;;;;;;;5037396;28;20224;-78
2023/07/29 00:59:44;;;;;;;10.50;9.50;;;;;;;;;;5029919;28;20212;-79
2023/07/29 01:02:14;;;;;;;10.90;10.00;;;;;;;;;;5029915;28;20223;-77
2023/07/29 01:04:42;;;;;;;11.45;10.55;;;;;;;;;;5025847;28;20242;-77
2023/07/29 01:07:22;;;;;;;13.70;12.40;;;;;;;;;;5045613;28;20282;-78
2023/07/29 01:10:07;;;;;;;13.18;11.88;;;;;;;;;;5046876;28;20226;-78
2023/07/29 01:12:49;;;;;;;11.98;10.98;;;;;;;;;;5054704;28;20247;-78
2023/07/29 01:15:22;;;;;;;11.48;10.27;;;;;;;;;;5054651;28;20231;-79
2023/07/29 01:18:11;;;;;;;9.82;8.82;;;;;;;;;;5055196;28;20236;-78
2023/07/29 01:20:40;;;;;;;10.20;9.20;;;;;;;;;;5043445;28;20292;-78
2023/07/29 01:23:10;;;;;;;13.63;12.43;;;;;;;;;;5028238;28;20711;-78
2023/07/29 01:25:35;;;;;;;14.77;13.35;;;;;;;;;;5029110;28;20214;-78
2023/07/29 01:28:01;;;;;;;17.13;15.45;;;;;;;;;;5037290;28;20697;-78
2023/07/29 01:30:31;;;;;;;17.27;15.80;;;;;;;;;;5021647;28;20557;-78
2023/07/29 01:33:05;;;;;;;18.52;16.73;;;;;;;;;;5040854;28;20246;-78
2023/07/29 01:35:40;;;;;;;19.33;17.63;;;;;;;;;;5003998;28;20250;-78
2023/07/29 01:38:13;;;;;;;18.40;16.85;;;;;;;;;;5049338;28;20227;-77
2023/07/29 01:40:41;;;;;;;19.25;17.15;;;;;;;;;;5010689;28;20234;-80
2023/07/29 01:43:12;;;;;;;18.73;17.10;;;;;;;;;;5023766;28;20243;-78
2023/07/29 01:45:39;;;;;;;19.77;18.08;;;;;;;;;;5015722;28;20224;-79
2023/07/29 01:48:05;;;;;;;18.30;16.83;;;;;;;;;;5033256;28;20223;-79
2023/07/29 01:50:32;;;;;;;19.90;17.60;;;;;;;;;;5019575;28;20326;-79
2023/07/29 01:53:02;;;;;;;20.08;18.23;;;;;;;;;;5032968;28;20235;-78
2023/07/29 01:55:30;;;;;;;20.48;18.60;;;;;;;;;;5032726;28;20238;-78
2023/07/29 01:57:56;;;;;;;20.85;18.95;;;;;;;;;;5022322;28;20223;-78
2023/07/29 02:00:24;;;;;;;19.70;17.95;;;;;;;;;;5034824;28;20234;-78
2023/07/29 02:02:50;;;;;;;20.52;18.63;;;;;;;;;;5049561;28;20659;-79
2023/07/29 02:05:16;;;;;;;20.05;18.15;;;;;;;;;;5031911;28;20230;-78
2023/07/29 02:07:41;;;;;;;20.98;19.08;;;;;;;;;;5023291;28;20314;-79
2023/07/29 02:10:09;;;;;;;20.40;18.73;;;;;;;;;;5021358;28;20233;-79
2023/07/29 02:12:35;;;;;;;20.77;18.92;;;;;;;;;;5035454;28;20236;-78
2023/07/29 02:15:01;;;;;;;21.02;18.92;;;;;;;;;;5018167;28;20984;-78
2023/07/29 02:17:26;;;;;;;20.88;19.13;;;;;;;;;;5019485;28;20230;-78
2023/07/29 02:19:57;;;;;;;20.25;18.45;;;;;;;;;;4998785;28;20219;-78
2023/07/29 02:22:22;;;;;;;21.23;19.33;;;;;;;;;;5037556;28;20304;-78
2023/07/29 02:24:48;;;;;;;22.40;20.30;;;;;;;;;;5044013;28;20215;-78
2023/07/29 02:27:13;;;;;;;22.05;20.02;;;;;;;;;;5011988;28;20780;-77
2023/07/29 02:29:39;;;;;;;21.77;19.73;;;;;;;;;;5012569;28;20220;-78
2023/07/29 02:32:05;;;;;;;20.45;18.75;;;;;;;;;;5026305;28;20289;-79
2023/07/29 02:34:33;;;;;;;23.13;21.13;;;;;;;;;;5010274;28;20216;-79
2023/07/29 02:36:59;;;;;;;23.00;20.75;;;;;;;;;;5012367;28;20213;-78
2023/07/29 02:39:24;;;;;;;24.73;21.55;;;;;;;;;;5011252;28;20246;-78
2023/07/29 02:41:50;;;;;;;23.13;20.73;;;;;;;;;;5011236;28;20648;-79
2023/07/29 02:44:19;;;;;;;22.90;20.90;;;;;;;;;;5019495;28;20640;-78
2023/07/29 02:46:44;;;;;;;23.40;21.20;;;;;;;;;;5015030;28;20222;-78
2023/07/29 02:49:10;;;;;;;23.73;21.45;;;;;;;;;;5011306;28;20759;-77
2023/07/29 02:51:38;;;;;;;22.63;20.42;;;;;;;;;;5053778;28;20497;-77
2023/07/29 02:54:03;;;;;;;24.52;20.75;;;;;;;;;;5042503;28;20223;-77
2023/07/29 02:56:31;;;;;;;22.67;20.48;;;;;;;;;;5038394;28;20224;-77
2023/07/29 02:58:57;;;;;;;20.75;18.80;;;;;;;;;;5042989;28;20219;-77
2023/07/29 03:01:22;;;;;;;22.00;19.90;;;;;;;;;;5019357;28;20262;-78
2023/07/29 03:03:48;;;;;;;21.50;19.60;;;;;;;;;;5020340;28;20235;-78
2023/07/29 03:06:16;;;;;;;22.15;19.17;;;;;;;;;;5009366;28;20216;-78
2023/07/29 03:08:42;;;;;;;21.42;19.40;;;;;;;;;;5012224;28;20291;-77
2023/07/29 03:11:11;;;;;;;26.65;20.17;;;;;;;;;;5030299;28;20284;-78
2023/07/29 03:13:39;;;;;;;20.95;19.05;;;;;;;;;;5034919;28;20309;-77
2023/07/29 03:16:08;;;;;;;20.88;18.95;;;;;;;;;;5045762;28;20589;-78
2023/07/29 03:18:34;;;;;;;21.50;19.30;;;;;;;;;;5053676;28;20227;-79
2023/07/29 03:21:00;;;;;;;21.90;19.70;;;;;;;;;;5016034;28;20274;-77
2023/07/29 03:23:26;;;;;;;22.50;20.40;;;;;;;;;;4999110;28;20220;-77
2023/07/29 03:25:57;;;;;;;21.88;19.77;;;;;;;;;;5023287;28;20227;-78
2023/07/29 03:28:27;;;;;;;21.33;19.27;;;;;;;;;;5023541;28;20227;-77
2023/07/29 03:30:53;;;;;;;21.02;19.20;;;;;;;;;;5011248;28;20664;-78
2023/07/29 03:33:21;;;;;;;20.02;18.02;;;;;;;;;;5033583;28;20352;-78
2023/07/29 03:35:47;;;;;;;19.88;17.80;;;;;;;;;;5042324;28;20245;-79
2023/07/29 03:38:12;;;;;;;19.83;18.00;;;;;;;;;;5029307;28;20282;-78
2023/07/29 03:40:43;;;;;;;17.33;15.63;;;;;;;;;;5042850;28;20280;-79
2023/07/29 03:43:11;;;;;;;16.95;15.35;;;;;;;;;;5051519;28;20228;-79
2023/07/29 03:45:40;;;;;;;18.02;16.33;;;;;;;;;;5017171;28;20242;-77
2023/07/29 03:48:06;;;;;;;18.75;16.80;;;;;;;;;;5052727;28;20242;-78
2023/07/29 03:50:35;;;;;;;20.33;18.17;;;;;;;;;;5039526;28;20235;-78
2023/07/29 03:53:09;;;;;;;19.75;17.88;;;;;;;;;;5014658;28;20228;-79
2023/07/29 03:55:35;;;;;;;19.70;17.90;;;;;;;;;;5038603;28;20220;-79
2023/07/29 03:58:03;;;;;;;18.75;17.25;;;;;;;;;;5042491;28;20229;-79
2023/07/29 04:04:56;;;;;;;19.83;17.85;;;;;;;;;;5052931;28;20255;-78
2023/07/29 04:07:29;;;;;;;20.08;18.13;;;;;;;;;;5039579;28;20242;-79
2023/07/29 04:09:56;;;;;;;19.33;17.42;;;;;;;;;;5049368;28;20705;-79
2023/07/29 04:12:25;;;;;;;19.25;17.55;;;;;;;;;;5008725;28;20247;-79
2023/07/29 04:14:51;;;;;;;19.25;17.50;;;;;;;;;;5008868;28;20285;-79
2023/07/29 04:17:16;;;;;;;19.10;17.20;;;;;;;;;;5037154;28;20692;-79
2023/07/29 04:19:42;;;;;;;18.80;17.05;;;;;;;;;;5032142;28;20237;-79
2023/07/29 04:22:07;;;;;;;18.33;16.65;;;;;;;;;;5024430;28;20718;-78
2023/07/29 04:24:33;;;;;;;18.23;16.73;;;;;;;;;;5039652;28;20786;-79
2023/07/29 04:27:00;;;;;;;22.58;16.33;;;;;;;;;;5040908;28;20215;-79
2023/07/29 04:29:26;;;;;;;17.38;15.88;;;;;;;;;;5039665;28;20220;-79
2023/07/29 04:31:54;;;;;;;17.88;16.17;;;;;;;;;;5016278;28;20451;-79
2023/07/29 04:34:19;;;;;;;16.70;15.40;;;;;;;;;;5033530;28;20224;-79
2023/07/29 04:36:48;;;;;;;17.65;15.93;;;;;;;;;;5015088;28;20222;-79
2023/07/29 04:39:14;;;;;;;16.50;15.00;;;;;;;;;;5031735;28;20220;-78
2023/07/29 04:41:39;;;;;;;16.92;15.50;;;;;;;;;;5039738;28;20198;-79
2023/07/29 04:44:05;;;;;;;16.02;14.70;;;;;;;;;;5036568;28;20289;-79
2023/07/29 04:46:32;;;;;;;16.20;14.73;;;;;;;;;;5033306;28;20303;-79
2023/07/29 04:48:57;;;;;;;14.93;13.73;;;;;;;;;;5023076;28;20208;-79
2023/07/29 04:51:25;;;;;;;14.20;13.00;;;;;;;;;;5039246;28;20231;-79
2023/07/29 04:53:53;;;;;;;14.70;13.50;;;;;;;;;;5017840;28;20223;-79
2023/07/29 04:56:19;;;;;;;14.20;13.10;;;;;;;;;;5030535;28;20647;-79
2023/07/29 04:58:45;;;;;;;14.75;13.55;;;;;;;;;;5034762;28;20246;-79
2023/07/29 05:01:10;;;;;;;12.93;11.75;;;;;;;;;;5009210;28;20212;-79
2023/07/29 05:03:39;;;;;;;13.38;12.27;;;;;;;;;;5034898;28;20230;-80
2023/07/29 05:06:05;;;;;;;14.02;12.60;;;;;;;;;;5036724;28;20284;-79
2023/07/29 05:08:31;;;;;;;11.45;10.40;;;;;;;;;;5038260;28;20231;-79
2023/07/29 05:11:01;;;;;;;11.68;10.73;;;;;;;;;;5019569;28;20231;-78
2023/07/29 05:13:27;;;;;;;12.10;11.20;;;;;;;;;;5039554;28;20239;-78
2023/07/29 05:15:56;;;;;;;11.13;10.25;;;;;;;;;;5039165;28;20275;-78
2023/07/29 05:18:24;;;;;;;11.05;10.20;;;;;;;;;;5040077;28;20275;-78
2023/07/29 05:20:57;;;;;;;9.82;9.05;;;;;;;;;;5007830;28;20916;-77
2023/07/29 05:23:27;;;;;;;9.18;8.48;;;;;;;;;;5020033;28;20564;-78
2023/07/29 05:25:55;;;;;;;8.32;7.63;;;;;;;;;;5034910;28;20591;-78
2023/07/29 05:28:20;;;;;;;7.55;6.95;;;;;;;;;;5017992;28;20212;-77
2023/07/29 05:30:53;;;;;;;7.20;6.60;;;;;;;;;;5019161;28;20224;-78
2023/07/29 05:33:21;;;;;;;7.03;6.35;;;;;;;;;;5036645;28;20700;-78
2023/07/29 05:35:47;;;;;;;6.95;6.25;;;;;;;;;;5050427;28;20216;-78
2023/07/29 05:38:15;;;;;;;6.82;6.22;;;;;;;;;;4987729;28;20936;-78
2023/07/29 05:40:41;;;;;;;6.25;5.85;;;;;;;;;;5031828;28;20447;-77
2023/07/29 05:43:10;;;;;;;7.05;6.45;;;;;;;;;;5017497;28;20224;-78
2023/07/29 05:45:36;;;;;;;5.90;5.43;;;;;;;;;;5027405;28;20219;-78
2023/07/29 05:48:04;;;;;;;6.20;5.70;;;;;;;;;;5019839;28;20215;-78
2023/07/29 05:50:29;;;;;;;6.43;6.03;;;;;;;;;;5028689;28;20224;-78
2023/07/29 05:52:59;;;;;;;6.28;5.78;;;;;;;;;;5016183;28;20235;-78
2023/07/29 05:55:25;;;;;;;6.22;5.72;;;;;;;;;;5028500;28;20715;-78
2023/07/29 05:57:51;;;;;;;6.13;5.53;;;;;;;;;;5022856;28;20224;-78
2023/07/29 06:00:21;;;;;;;8.18;5.22;;;;;;;;;;5021892;28;20230;-78
2023/07/29 06:02:47;;;;;;;6.25;5.10;;;;;;;;;;5029945;28;20291;-77
2023/07/29 06:05:16;;;;;;;5.75;5.35;;;;;;;;;;5034600;28;20264;-79
2023/07/29 06:07:44;;;;;;;5.85;4.70;;;;;;;;;;5033696;28;20227;-79
2023/07/29 06:10:14;;;;;;;5.15;4.65;;;;;;;;;;5039287;28;20284;-79
2023/07/29 06:12:39;;;;;;;16.85;3.90;;;;;;;;;;5024001;28;20216;-79
2023/07/29 06:15:05;;;;;;;3.80;3.47;;;;;;;;;;5042299;28;20294;-80
2023/07/29 06:17:31;;;;;;;3.67;3.45;;;;;;;;;;5010113;28;20223;-80
2023/07/29 06:19:56;;;;;;;4.05;3.75;;;;;;;;;;5039340;28;20216;-79
2023/07/29 06:22:24;;;;;;;3.25;2.97;;;;;;;;;;5026470;28;20363;-79
2023/07/29 06:24:50;;;;;;;3.30;3.10;;;;;;;;;;5007777;28;20250;-81
2023/07/29 06:27:15;;;;;;;3.70;3.00;;;;;;;;;;5014741;28;20216;-81
2023/07/29 06:29:41;;;;;;;2.80;2.60;;;;;;;;;;5026127;28;20211;-81
2023/07/29 06:32:07;;;;;;;2.90;2.65;;;;;;;;;;5029001;28;20660;-79
2023/07/29 06:34:32;;;;;;;4.53;2.95;;;;;;;;;;5025131;28;20231;-81
2023/07/29 06:36:58;;;;;;;3.53;3.22;;;;;;;;;;5025432;28;20278;-80
2023/07/29 06:39:23;;;;;;;3.42;3.22;;;;;;;;;;5030335;28;20269;-81
2023/07/29 06:41:49;;;;;;;3.70;3.40;;;;;;;;;;5016712;28;20644;-82
2023/07/29 06:44:17;;;;;;;3.60;3.30;;;;;;;;;;4992197;28;20241;-83
2023/07/29 06:46:42;;;;;;;3.95;3.65;;;;;;;;;;5012824;28;20980;-79
2023/07/29 06:49:08;;;;;;;3.53;3.22;;;;;;;;;;5008772;28;20219;-79
2023/07/29 06:51:35;;;;;;;4.15;3.38;;;;;;;;;;5014582;28;20207;-82
2023/07/29 06:54:01;;;;;;;4.43;3.80;;;;;;;;;;5013956;28;20219;-80
2023/07/29 06:56:27;;;;;;;4.00;3.40;;;;;;;;;;5024108;28;20709;-78
2023/07/29 06:58:52;;;;;;;4.05;3.75;;;;;;;;;;5022141;28;20235;-78
2023/07/29 07:01:18;;;;;;;4.43;3.85;;;;;;;;;;5015538;28;20223;-79
2023/07/29 07:03:43;;;;;;;4.43;4.13;;;;;;;;;;5011475;28;20234;-79
2023/07/29 07:06:11;;;;;;;4.18;3.85;;;;;;;;;;5037007;28;20218;-77
2023/07/29 07:08:39;;;;;;;6.18;4.90;;;;;;;;;;5030139;28;20227;-78
2023/07/29 07:11:05;;;;;;;5.15;4.75;;;;;;;;;;5013733;28;20219;-80
2023/07/29 07:13:30;;;;;;;5.15;4.68;;;;;;;;;;5020874;28;20270;-78
2023/07/29 07:15:56;;;;;;;4.68;4.28;;;;;;;;;;5023143;28;20264;-79
2023/07/29 07:18:25;;;;;;;5.50;5.10;;;;;;;;;;5033656;28;20598;-79
2023/07/29 07:20:52;;;;;;;4.78;4.22;;;;;;;;;;4997363;28;20683;-78
2023/07/29 07:23:20;;;;;;;5.28;4.88;;;;;;;;;;5031327;28;20315;-77
2023/07/29 07:25:46;;;;;;;5.47;4.82;;;;;;;;;;5033925;28;20243;-77
2023/07/29 07:28:11;;;;;;;5.38;4.97;;;;;;;;;;5016146;28;20222;-77
2023/07/29 07:30:43;;;;;;;5.65;5.22;;;;;;;;;;5027864;28;20219;-78
2023/07/29 07:33:08;;;;;;;5.47;5.07;;;;;;;;;;5027911;28;20207;-78
2023/07/29 07:35:38;;;;;;;5.95;5.45;;;;;;;;;;5030037;28;20231;-78
2023/07/29 07:38:07;;;;;;;5.57;5.18;;;;;;;;;;5046199;28;20316;-77
2023/07/29 07:40:33;;;;;;;7.20;6.70;;;;;;;;;;5019811;28;20255;-76
2023/07/29 07:42:58;;;;;;;5.57;5.28;;;;;;;;;;5023463;28;20223;-78
2023/07/29 07:45:24;;;;;;;6.78;6.28;;;;;;;;;;5026028;28;20576;-77
2023/07/29 07:47:52;;;;;;;5.68;5.28;;;;;;;;;;5007918;28;20219;-78
2023/07/29 07:50:18;;;;;;;6.78;6.15;;;;;;;;;;5029228;28;20227;-79
2023/07/29 07:52:43;;;;;;;6.80;6.10;;;;;;;;;;5031625;28;20231;-78
2023/07/29 07:55:09;;;;;;;6.43;5.93;;;;;;;;;;4998962;28;20756;-76
2023/07/29 07:57:34;;;;;;;7.22;6.63;;;;;;;;;;5029228;28;20342;-79
2023/07/29 08:00:04;;;;;;;6.45;5.95;;;;;;;;;;5027817;28;20212;-77
2023/07/29 08:02:38;;;;;;;6.95;6.35;;;;;;;;;;5025116;28;20762;-78
2023/07/29 08:05:06;;;;;;;8.05;7.35;;;;;;;;;;5032016;28;20226;-77
2023/07/29 08:07:31;;;;;;;7.78;7.13;;;;;;;;;;5020835;28;20648;-79
2023/07/29 08:09:57;;;;;;;7.95;7.25;;;;;;;;;;5041239;28;20216;-78
2023/07/29 08:12:25;;;;;;;8.60;7.90;;;;;;;;;;5014804;28;20596;-79
2023/07/29 08:14:50;;;;;;;8.60;7.90;;;;;;;;;;5044565;28;20310;-77
2023/07/29 08:17:16;;;;;;;8.77;8.07;;;;;;;;;;5023274;28;20212;-78
2023/07/29 08:19:46;;;;;;;8.77;7.95;;;;;;;;;;5025146;28;20220;-81
2023/07/29 08:22:14;;;;;;;8.63;7.80;;;;;;;;;;5026228;28;20212;-77
2023/07/29 08:24:39;;;;;;;8.63;8.02;;;;;;;;;;5041808;28;20226;-78
2023/07/29 08:27:07;;;;;;;8.50;7.80;;;;;;;;;;5013650;28;20677;-77
2023/07/29 08:29:35;;;;;;;9.02;8.32;;;;;;;;;;5024107;28;20251;-78
2023/07/29 08:32:01;;;;;;;8.63;7.97;;;;;;;;;;5030309;28;20216;-78
2023/07/29 08:34:26;;;;;;;9.00;8.10;;;;;;;;;;5009916;28;20574;-78
2023/07/29 08:36:54;;;;;;;10.35;9.45;;;;;;;;;;5014068;28;20219;-79
2023/07/29 08:39:20;;;;;;;8.80;8.13;;;;;;;;;;5014708;28;20224;-78
2023/07/29 08:42:10;;;;;;;9.48;8.77;;;;;;;;;;5014675;28;20231;-77
2023/07/29 08:44:42;;;;;;;9.05;8.30;;;;;;;;;;5006190;28;20232;-78
2023/07/29 08:47:09;;;;;;;10.02;9.10;;;;;;;;;;5012796;28;20219;-77
2023/07/29 08:49:38;;;;;;;8.85;8.15;;;;;;;;;;5024497;28;20302;-79
2023/07/29 08:52:04;;;;;;;9.75;8.95;;;;;;;;;;5007111;28;20593;-78
2023/07/29 08:54:29;;;;;;;9.65;8.95;;;;;;;;;;4990462;28;20591;-79
2023/07/29 08:56:57;;;;;;;10.23;9.43;;;;;;;;;;5022027;28;20216;-78
2023/07/29 08:59:23;;;;;;;10.00;9.10;;;;;;;;;;5020848;28;20219;-79
2023/07/29 09:01:49;;;;;;;10.88;10.07;;;;;;;;;;5055234;28;20287;-78
2023/07/29 09:04:14;;;;;;;10.75;9.90;;;;;;;;;;5047486;28;20227;-78
2023/07/29 09:06:42;;;;;;;10.73;9.32;;;;;;;;;;5008827;28;20226;-78
2023/07/29 09:09:10;;;;;;;9.73;8.93;;;;;;;;;;5034895;28;20219;-78
2023/07/29 09:11:37;;;;;;;10.45;9.65;;;;;;;;;;5007990;28;20287;-77
2023/07/29 09:14:03;;;;;;;9.77;9.02;;;;;;;;;;5032402;28;20224;-78
2023/07/29 09:16:29;;;;;;;9.77;9.07;;;;;;;;;;5027881;28;20652;-79
2023/07/29 09:18:55;;;;;;;8.93;7.90;;;;;;;;;;5031485;28;20211;-79
2023/07/29 09:21:28;;;;;;;9.48;8.63;;;;;;;;;;5016452;28;20254;-79
2023/07/29 09:23:56;;;;;;;11.13;10.07;;;;;;;;;;4990870;28;20680;-79
2023/07/29 09:26:25;;;;;;;10.65;9.75;;;;;;;;;;5030708;28;20219;-79
2023/07/29 09:28:57;;;;;;;9.52;8.70;;;;;;;;;;5015806;28;20280;-80
2023/07/29 09:31:27;;;;;;;10.30;9.27;;;;;;;;;;5026898;28;20227;-79
2023/07/29 09:33:59;;;;;;;10.70;9.88;;;;;;;;;;5006617;28;20236;-78
2023/07/29 09:36:27;;;;;;;9.80;9.00;;;;;;;;;;5046167;28;20683;-80
2023/07/29 09:38:58;;;;;;;8.30;7.60;;;;;;;;;;5001988;28;20222;-78
2023/07/29 09:41:28;;;;;;;8.95;8.18;;;;;;;;;;5013047;28;20238;-79
2023/07/29 09:44:01;;;;;;;10.32;9.52;;;;;;;;;;5033490;28;20219;-78
2023/07/29 09:46:32;;;;;;;10.07;9.30;;;;;;;;;;5015389;28;20234;-79
2023/07/29 09:48:58;;;;;;;10.55;9.65;;;;;;;;;;4992916;28;20240;-79
2023/07/29 09:51:24;;;;;;;9.55;8.65;;;;;;;;;;5038716;28;20223;-77
2023/07/29 09:53:50;;;;;;;10.48;9.57;;;;;;;;;;5022860;28;20253;-77
2023/07/29 09:56:18;;;;;;;10.63;9.73;;;;;;;;;;5015290;28;20211;-79
2023/07/29 09:58:45;;;;;;;10.70;9.85;;;;;;;;;;4999406;28;20227;-78
2023/07/29 10:01:11;;;;;;;10.75;9.85;;;;;;;;;;5025880;28;20196;-79
2023/07/29 10:03:36;;;;;;;11.02;10.10;;;;;;;;;;5024712;28;20285;-78
2023/07/29 10:06:02;;;;;;;10.43;9.63;;;;;;;;;;5023211;28;20231;-79
2023/07/29 10:08:31;;;;;;;10.40;9.60;;;;;;;;;;5020656;28;20226;-78
2023/07/29 10:11:05;;;;;;;10.45;9.50;;;;;;;;;;5011101;28;20699;-79
2023/07/29 10:13:30;;;;;;;10.02;9.20;;;;;;;;;;5008984;28;20238;-79
2023/07/29 10:15:56;;;;;;;9.80;9.00;;;;;;;;;;5005580;28;20224;-79
2023/07/29 10:18:22;;;;;;;9.75;8.95;;;;;;;;;;5016824;28;20210;-78
2023/07/29 10:20:49;;;;;;;9.32;8.63;;;;;;;;;;5015551;28;20823;-79
2023/07/29 10:23:18;;;;;;;9.75;9.00;;;;;;;;;;5016686;28;20216;-79
2023/07/29 10:25:46;;;;;;;9.15;8.43;;;;;;;;;;5031727;28;20223;-79
2023/07/29 10:28:12;;;;;;;9.00;8.30;;;;;;;;;;5014152;28;20278;-79
2023/07/29 10:30:38;;;;;;;9.40;8.60;;;;;;;;;;5009029;28;20294;-80
2023/07/29 10:33:04;;;;;;;9.07;8.40;;;;;;;;;;5003480;28;20711;-80
2023/07/29 10:35:33;;;;;;;9.23;8.50;;;;;;;;;;4995608;28;20318;-79
2023/07/29 10:38:02;;;;;;;9.20;8.30;;;;;;;;;;5019747;28;20222;-79
2023/07/29 10:40:47;;;;;;;8.70;8.00;;;;;;;;;;5028410;28;20211;-81
2023/07/29 10:43:18;;;;;;;9.10;8.40;;;;;;;;;;5040256;28;20743;-78
2023/07/29 10:45:44;;;;;;;8.35;7.55;;;;;;;;;;5019628;28;20288;-78
2023/07/29 10:48:32;;;;;;;8.10;7.50;;;;;;;;;;5026794;28;20219;-79
2023/07/29 10:51:22;;;;;;;9.80;8.90;;;;;;;;;;5026465;28;20246;-80
2023/07/29 10:53:50;;;;;;;9.38;8.57;;;;;;;;;;5002854;28;20238;-78
2023/07/29 10:56:25;;;;;;;9.57;8.68;;;;;;;;;;5012526;28;20220;-78
2023/07/29 10:58:50;;;;;;;10.27;9.48;;;;;;;;;;5031531;28;20219;-79
2023/07/29 11:01:29;;;;;;;9.52;8.73;;;;;;;;;;5012423;28;20236;-78
2023/07/29 11:04:23;;;;;;;10.05;9.00;;;;;;;;;;5029763;28;20215;-79
2023/07/29 11:07:01;;;;;;;13.07;9.60;;;;;;;;;;5048301;28;20219;-79
2023/07/29 11:09:51;;;;;;;10.25;9.40;;;;;;;;;;5019640;28;20227;-79
2023/07/29 11:12:37;;;;;;;9.05;8.35;;;;;;;;;;5039433;28;20255;-79
2023/07/29 11:15:09;;;;;;;8.10;7.40;;;;;;;;;;5045301;28;20322;-79
2023/07/29 11:17:39;;;;;;;8.13;7.38;;;;;;;;;;5046204;28;20309;-78
2023/07/29 11:20:08;;;;;;;6.95;6.38;;;;;;;;;;4997014;28;20216;-79
2023/07/29 11:22:34;;;;;;;6.70;6.18;;;;;;;;;;5007982;28;20240;-79
2023/07/29 11:25:02;;;;;;;6.53;5.63;;;;;;;;;;5013308;28;20824;-80
2023/07/29 11:27:28;;;;;;;6.00;5.50;;;;;;;;;;5011371;28;20239;-79
2023/07/29 11:30:05;;;;;;;7.00;6.30;;;;;;;;;;5016369;28;20219;-80
2023/07/29 11:32:30;;;;;;;7.68;5.57;;;;;;;;;;5026572;28;20884;-80
2023/07/29 11:34:56;;;;;;;6.53;4.70;;;;;;;;;;5032430;28;20211;-82
2023/07/29 11:37:22;;;;;;;4.88;4.40;;;;;;;;;;5042531;28;20215;-79
2023/07/29 11:39:47;;;;;;;4.70;3.88;;;;;;;;;;5045364;28;20908;-79
2023/07/29 11:42:13;;;;;;;5.47;4.97;;;;;;;;;;5036253;28;20555;-79
2023/07/29 11:44:39;;;;;;;4.30;4.00;;;;;;;;;;5011160;28;20346;-81
2023/07/29 11:47:11;;;;;;;4.32;3.92;;;;;;;;;;5020885;28;20211;-79
2023/07/29 11:49:40;;;;;;;4.05;3.10;;;;;;;;;;5045299;28;20235;-79
2023/07/29 11:52:11;;;;;;;4.00;3.40;;;;;;;;;;5044822;28;20228;-78
2023/07/29 11:54:37;;;;;;;3.03;2.83;;;;;;;;;;5026969;28;20236;-78
2023/07/29 11:57:11;;;;;;;3.47;3.17;;;;;;;;;;5043754;28;20208;-81
2023/07/29 11:59:37;;;;;;;4.50;2.97;;;;;;;;;;5034586;28;20242;-81
2023/07/29 12:02:10;;;;;;;3.80;2.72;;;;;;;;;;5010671;28;20208;-79
2023/07/29 12:04:35;;;;;;;2.72;2.53;;;;;;;;;;5016463;28;20223;-82
2023/07/29 12:07:01;;;;;;;3.08;2.60;;;;;;;;;;4991446;28;20633;-80
2023/07/29 12:09:27;;;;;;;3.30;2.88;;;;;;;;;;5047201;28;20272;-82
2023/07/29 12:11:55;;;;;;;3.35;3.05;;;;;;;;;;5031780;28;20223;-80
2023/07/29 12:14:21;;;;;;;2.88;2.67;;;;;;;;;;5027806;28;20224;-82
2023/07/29 12:16:48;;;;;;;3.60;3.30;;;;;;;;;;5048928;28;20227;-78
2023/07/29 12:19:14;;;;;;;3.10;2.80;;;;;;;;;;4996201;28;20909;-80
2023/07/29 12:21:42;;;;;;;5.90;3.00;;;;;;;;;;5019711;28;20251;-81
2023/07/29 12:24:10;;;;;;;4.47;2.15;;;;;;;;;;5030680;28;20317;-81
2023/07/29 12:26:36;;;;;;;2.40;2.10;;;;;;;;;;5030410;28;20224;-78
2023/07/29 12:29:14;;;;;;;5.82;2.33;;;;;;;;;;5043834;28;20221;-80
2023/07/29 12:31:40;;;;;;;2.35;2.10;;;;;;;;;;4996250;28;21034;-80
2023/07/29 12:34:11;;;;;;;1.80;1.70;;;;;;;;;;4982271;28;20216;-82
2023/07/29 12:36:44;;;;;;;3.42;2.10;;;;;;;;;;4978478;28;20228;-80
2023/07/29 12:39:22;;;;;;;2.58;2.15;;;;;;;;;;5016672;28;20257;-79
2023/07/29 12:41:51;;;;;;;3.08;1.40;;;;;;;;;;5022235;28;20788;-79
2023/07/29 12:44:16;;;;;;;1.55;1.45;;;;;;;;;;5028098;28;20219;-79
2023/07/29 12:46:42;;;;;;;2.38;1.55;;;;;;;;;;5018648;28;20228;-78
2023/07/29 12:49:10;;;;;;;1.90;1.50;;;;;;;;;;5027374;28;20222;-79
2023/07/29 12:51:38;;;;;;;1.58;1.48;;;;;;;;;;4989367;28;20220;-78
2023/07/29 12:54:04;;;;;;;1.48;1.35;;;;;;;;;;4986269;28;20597;-81
2023/07/29 12:56:31;;;;;;;2.10;1.40;;;;;;;;;;5011586;28;20283;-79
2023/07/29 12:58:57;;;;;;;1.40;1.10;;;;;;;;;;4992976;28;20212;-79
2023/07/29 13:01:23;;;;;;;1.23;1.10;;;;;;;;;;5003966;28;20220;-81
2023/07/29 13:03:49;;;;;;;1.05;0.95;;;;;;;;;;4984568;28;21041;-79
2023/07/29 13:06:15;;;;;;;3.30;0.88;;;;;;;;;;5007642;28;20230;-79
2023/07/29 13:08:40;;;;;;;2.22;1.05;;;;;;;;;;5001013;28;20225;-82
2023/07/29 13:11:06;;;;;;;1.52;1.10;;;;;;;;;;4997731;28;20277;-80
2023/07/29 13:13:32;;;;;;;0.90;0.90;;;;;;;;;;4999549;28;20231;-79
2023/07/29 13:16:01;;;;;;;3.10;0.90;;;;;;;;;;5032199;28;20303;-78
2023/07/29 13:18:28;;;;;;;3.28;1.30;;;;;;;;;;5009522;28;20227;-84
2023/07/29 13:20:54;;;;;;;1.17;1.08;;;;;;;;;;5019622;28;20302;-82
2023/07/29 13:23:22;;;;;;;1.23;1.10;;;;;;;;;;5049738;28;20241;-79
2023/07/29 13:25:48;;;;;;;1.10;1.02;;;;;;;;;;5015291;28;20314;-82
2023/07/29 13:28:13;;;;;;;1.23;1.13;;;;;;;;;;4999238;28;20291;-80
2023/07/29 13:30:39;;;;;;;1.27;1.05;;;;;;;;;;5007187;28;20216;-79
2023/07/29 13:33:06;;;;;;;1.15;1.05;;;;;;;;;;5014590;28;20292;-81
2023/07/29 13:35:32;;;;;;;1.75;1.10;;;;;;;;;;5046602;28;20224;-80
2023/07/29 13:38:00;;;;;;;1.63;0.93;;;;;;;;;;5020146;28;20311;-80
2023/07/29 13:40:28;;;;;;;1.30;1.20;;;;;;;;;;5031306;28;20706;-81
2023/07/29 13:42:56;;;;;;;1.40;1.30;;;;;;;;;;5016101;28;20223;-81
2023/07/29 13:45:21;;;;;;;1.00;1.00;;;;;;;;;;5044047;28;20219;-79
2023/07/29 13:47:50;;;;;;;2.70;1.30;;;;;;;;;;5009225;28;20235;-82
2023/07/29 13:50:17;;;;;;;1.45;1.30;;;;;;;;;;4998069;28;20227;-80
2023/07/29 13:52:43;;;;;;;1.20;1.10;;;;;;;;;;5013794;28;20228;-80
2023/07/29 13:55:11;;;;;;;2.22;1.20;;;;;;;;;;5031478;28;20597;-80
2023/07/29 13:57:38;;;;;;;4.25;1.40;;;;;;;;;;5045948;28;20220;-82
2023/07/29 14:00:05;;;;;;;1.40;1.00;;;;;;;;;;4980341;28;20215;-77
2023/07/29 14:02:37;;;;;;;2.55;1.27;;;;;;;;;;5014201;28;20286;-80
2023/07/29 14:05:06;;;;;;;1.30;1.20;;;;;;;;;;5014254;28;20239;-83
2023/07/29 14:07:34;;;;;;;1.80;1.30;;;;;;;;;;5015177;28;20259;-80
2023/07/29 14:10:03;;;;;;;1.30;1.20;;;;;;;;;;4993997;28;20224;-81
2023/07/29 14:12:28;;;;;;;1.30;1.20;;;;;;;;;;5000951;28;20231;-82
2023/07/29 14:14:54;;;;;;;1.55;1.30;;;;;;;;;;4997333;28;20659;-81
2023/07/29 14:17:19;;;;;;;2.15;1.20;;;;;;;;;;5014297;28;20266;-82
2023/07/29 14:19:47;;;;;;;1.05;0.95;;;;;;;;;;5013740;28;20223;-82
2023/07/29 14:22:12;;;;;;;2.83;1.35;;;;;;;;;;5014038;28;20211;-81
2023/07/29 14:24:38;;;;;;;1.80;1.42;;;;;;;;;;5004201;28;20220;-80
2023/07/29 14:27:04;;;;;;;1.45;1.35;;;;;;;;;;5029673;28;20223;-83
2023/07/29 14:29:30;;;;;;;2.10;1.27;;;;;;;;;;4991272;28;20216;-80
2023/07/29 14:31:57;;;;;;;1.50;1.40;;;;;;;;;;5008548;28;20212;-81
2023/07/29 14:34:23;;;;;;;3.17;1.38;;;;;;;;;;5006175;28;20645;-82
2023/07/29 14:36:48;;;;;;;1.95;1.33;;;;;;;;;;4985569;28;20223;-81
2023/07/29 14:39:14;;;;;;;1.45;1.10;;;;;;;;;;5028978;28;20219;-80
2023/07/29 14:41:46;;;;;;;1.08;1.05;;;;;;;;;;5014211;28;20207;-79